Time;durP1;ratioP1;P1;durP2;ratioP2;P2;SDS_P1;SDS_P2;PMS_P1;PMS_P2;Temp;Humidity;BMP_temperature;BMP_pressure;BME280_temperature;BME280_humidity;BME280_pressure;Samples;Min_cycle;Max_cycle;Signal;HPM_P1;HPM_P2
2021/07/03 00:00:17;;;;;;;122.93;65.00;;;;;;;16.05;84.75;98115.97;5021117;28;20222;-72
2021/07/03 00:02:43;;;;;;;95.53;35.78;;;;;;;16.03;84.38;98117.81;5022244;28;20227;-74
2021/07/03 00:05:11;;;;;;;97.90;47.70;;;;;;;15.49;85.05;98114.00;5021334;28;20225;-73
2021/07/03 00:07:39;;;;;;;88.95;40.38;;;;;;;16.17;83.86;98112.56;5021825;28;20237;-72
2021/07/03 00:10:06;;;;;;;92.32;37.88;;;;;;;16.64;82.41;98110.53;5021190;28;20214;-72
2021/07/03 00:12:34;;;;;;;76.85;30.10;;;;;;;16.47;82.76;98108.94;5021342;28;20211;-73
2021/07/03 00:15:01;;;;;;;84.38;25.35;;;;;;;16.41;82.96;98111.97;5020537;28;20302;-72
2021/07/03 00:17:27;;;;;;;75.32;18.80;;;;;;;16.30;82.57;98112.66;5020904;28;20243;-72
2021/07/03 00:19:54;;;;;;;77.25;22.77;;;;;;;15.80;82.97;98114.81;5021825;28;20476;-72
2021/07/03 00:22:20;;;;;;;84.35;26.45;;;;;;;15.94;84.47;98106.94;5021145;28;20235;-72
2021/07/03 00:24:48;;;;;;;87.43;24.48;;;;;;;16.54;82.41;98105.00;5021562;28;20211;-72
2021/07/03 00:27:15;;;;;;;74.28;26.45;;;;;;;16.13;81.96;98108.44;5020868;28;20771;-72
2021/07/03 00:29:41;;;;;;;103.40;49.22;;;;;;;16.20;81.93;98104.50;5021332;28;20250;-72
2021/07/03 00:32:08;;;;;;;120.95;61.47;;;;;;;15.93;83.89;98107.03;5020630;28;20240;-73
2021/07/03 00:34:35;;;;;;;112.25;59.50;;;;;;;16.12;82.45;98104.09;5021582;28;20405;-73
2021/07/03 00:37:01;;;;;;;74.80;28.83;;;;;;;16.38;81.67;98105.13;5020813;28;20242;-73
2021/07/03 00:39:28;;;;;;;76.55;26.70;;;;;;;16.26;81.79;98096.19;5021021;28;20226;-73
2021/07/03 00:41:56;;;;;;;90.05;29.23;;;;;;;15.94;83.78;98090.31;5019855;28;20248;-72
2021/07/03 00:44:30;;;;;;;73.80;30.85;;;;;;;15.56;82.91;98093.44;5021290;28;20222;-72
2021/07/03 00:46:56;;;;;;;83.00;19.05;;;;;;;15.72;85.03;98094.22;5019729;28;20234;-73
2021/07/03 00:49:23;;;;;;;84.82;22.58;;;;;;;15.42;83.80;98095.13;5021096;28;20735;-73
2021/07/03 00:51:50;;;;;;;103.88;28.90;;;;;;;15.78;83.07;98090.41;5020260;28;20285;-73
2021/07/03 00:54:17;;;;;;;92.88;25.70;;;;;;;15.51;82.86;98093.75;5020714;28;20245;-72
2021/07/03 00:56:43;;;;;;;97.53;27.85;;;;;;;15.14;84.80;98093.25;5019688;28;20278;-72
2021/07/03 00:59:11;;;;;;;76.25;24.63;;;;;;;14.74;85.20;98094.69;5021090;28;20249;-72
2021/07/03 01:01:38;;;;;;;75.68;18.58;;;;;;;15.03;84.27;98104.41;5019876;28;20276;-72
2021/07/03 01:04:06;;;;;;;73.75;17.58;;;;;;;14.51;86.59;98106.47;5020803;28;20237;-72
2021/07/03 01:06:33;;;;;;;78.35;16.80;;;;;;;14.68;88.25;98109.00;5019863;28;20270;-72
2021/07/03 01:09:00;;;;;;;67.07;15.60;;;;;;;15.21;85.37;98107.72;5020409;28;20211;-72
2021/07/03 01:11:27;;;;;;;78.65;16.77;;;;;;;15.63;85.52;98107.09;5019699;28;20245;-73
2021/07/03 01:13:54;;;;;;;78.82;17.83;;;;;;;15.20;85.25;98102.56;5020780;28;20222;-73
2021/07/03 01:16:22;;;;;;;80.70;16.63;;;;;;;15.80;84.96;98099.88;5019774;28;20707;-72
2021/07/03 01:18:48;;;;;;;81.35;16.95;;;;;;;15.46;84.53;98106.31;5020423;28;20234;-73
2021/07/03 01:21:16;;;;;;;66.82;15.05;;;;;;;15.69;85.26;98111.97;5019042;28;20243;-72
2021/07/03 01:23:43;;;;;;;91.55;18.27;;;;;;;15.30;85.58;98108.16;5019846;28;20230;-72
2021/07/03 01:26:10;;;;;;;74.05;16.08;;;;;;;15.21;85.16;98107.72;5019294;28;20242;-72
2021/07/03 01:28:36;;;;;;;87.70;18.10;;;;;;;15.47;84.75;98112.41;5020530;28;20235;-72
2021/07/03 01:31:03;;;;;;;65.70;15.77;;;;;;;15.05;85.52;98112.16;5019645;28;20241;-73
2021/07/03 01:33:30;;;;;;;78.30;16.65;;;;;;;14.96;85.79;98107.44;5020245;28;20211;-72
2021/07/03 01:35:56;;;;;;;70.30;16.00;;;;;;;14.97;86.56;98110.00;5019482;28;20675;-72
2021/07/03 01:38:25;;;;;;;84.68;18.27;;;;;;;15.00;87.84;98107.19;5020171;28;20242;-72
2021/07/03 01:40:53;;;;;;;69.88;17.38;;;;;;;14.91;87.40;98107.72;5019742;28;20257;-72
2021/07/03 01:43:21;;;;;;;76.50;17.48;;;;;;;14.62;86.88;98106.75;5020005;28;20253;-72
2021/07/03 01:45:48;;;;;;;71.97;18.95;;;;;;;14.52;88.15;98110.75;5019197;28;20546;-73
2021/07/03 01:48:14;;;;;;;88.55;20.45;;;;;;;14.74;88.33;98103.44;5020185;28;20241;-72
2021/07/03 01:50:41;;;;;;;77.78;17.95;;;;;;;15.67;85.76;98108.59;5019421;28;20235;-72
2021/07/03 01:53:07;;;;;;;88.70;23.25;;;;;;;15.88;84.96;98107.34;5020252;28;20202;-72
2021/07/03 01:55:34;;;;;;;76.82;25.55;;;;;;;15.48;84.86;98109.69;5019550;28;20241;-73
2021/07/03 01:58:02;;;;;;;84.38;27.50;;;;;;;14.79;85.45;98109.25;5019749;28;20242;-72
2021/07/03 02:00:29;;;;;;;89.05;33.53;;;;;;;15.10;87.66;98112.75;5019441;28;20243;-72
2021/07/03 02:02:55;;;;;;;87.15;50.10;;;;;;;15.47;84.52;98101.88;5019678;28;20214;-72
2021/07/03 02:05:22;;;;;;;120.65;56.55;;;;;;;15.63;85.34;98107.94;5019321;28;20211;-72
2021/07/03 02:07:48;;;;;;;112.05;60.13;;;;;;;15.66;85.18;98106.88;5019320;28;20238;-73
2021/07/03 02:10:15;;;;;;;114.40;55.65;;;;;;;15.99;83.74;98104.88;5019161;28;20664;-72
2021/07/03 02:12:42;;;;;;;117.25;57.85;;;;;;;16.17;83.04;98105.53;5020177;28;20242;-73
2021/07/03 02:15:11;;;;;;;127.70;64.28;;;;;;;16.37;81.30;98103.44;5019039;28;20868;-72
2021/07/03 02:17:38;;;;;;;113.47;55.30;;;;;;;15.37;82.95;98106.84;5019947;28;20242;-72
2021/07/03 02:20:06;;;;;;;98.40;48.95;;;;;;;15.22;86.17;98104.19;5018625;28;20210;-72
2021/07/03 02:22:33;;;;;;;88.60;57.17;;;;;;;15.03;86.67;98103.53;5018547;28;20223;-72
2021/07/03 02:24:59;;;;;;;111.97;60.55;;;;;;;15.73;83.98;98102.94;5019843;28;20230;-72
2021/07/03 02:27:26;;;;;;;106.53;60.13;;;;;;;15.63;83.24;98097.41;5018939;28;20246;-72
2021/07/03 02:29:52;;;;;;;121.55;63.13;;;;;;;15.50;83.71;98097.28;5019248;28;20337;-73
2021/07/03 02:32:21;;;;;;;116.85;62.08;;;;;;;15.86;84.14;98096.06;5018793;28;20881;-73
2021/07/03 02:34:47;;;;;;;120.63;58.60;;;;;;;15.99;82.85;98101.41;5021542;28;20215;-72
2021/07/03 02:37:14;;;;;;;112.85;52.17;;;;;;;14.96;86.02;98100.44;5022534;28;20242;-72
2021/07/03 02:39:41;;;;;;;93.93;40.15;;;;;;;14.90;87.05;98102.56;5023852;28;20211;-72
2021/07/03 02:42:07;;;;;;;90.65;44.47;;;;;;;15.07;87.25;98098.97;5022993;28;20238;-72
2021/07/03 02:44:34;;;;;;;95.90;42.80;;;;;;;14.72;87.85;98096.56;5022747;28;20207;-72
2021/07/03 02:47:01;;;;;;;111.05;51.50;;;;;;;15.08;86.54;98106.75;5021714;28;20801;-72
2021/07/03 02:49:29;;;;;;;106.55;50.65;;;;;;;15.77;85.11;98100.09;5023004;28;20746;-73
2021/07/03 02:51:56;;;;;;;109.40;54.85;;;;;;;15.96;84.14;98101.59;5022726;28;20249;-72
2021/07/03 02:54:22;;;;;;;108.70;55.58;;;;;;;15.63;84.08;98107.09;5022592;28;20214;-72
2021/07/03 02:56:49;;;;;;;87.35;43.72;;;;;;;15.25;86.50;98107.56;5022121;28;20816;-72
2021/07/03 02:59:15;;;;;;;116.90;57.40;;;;;;;15.92;84.73;98108.00;5023321;28;20326;-72
2021/07/03 03:01:42;;;;;;;118.65;57.83;;;;;;;15.73;84.99;98108.22;5021994;28;20238;-72
2021/07/03 03:04:08;;;;;;;105.10;56.05;;;;;;;15.72;85.81;98107.38;5023117;28;20212;-73
2021/07/03 03:06:36;;;;;;;108.38;58.53;;;;;;;15.95;83.17;98099.91;5022178;28;20242;-72
2021/07/03 03:09:03;;;;;;;109.00;57.08;;;;;;;15.09;85.29;98118.09;5022500;28;20699;-72
2021/07/03 03:11:30;;;;;;;105.38;53.95;;;;;;;15.18;85.76;98107.94;5021565;28;20245;-72
2021/07/03 03:13:56;;;;;;;111.60;58.30;;;;;;;16.04;83.37;98112.47;5022697;28;20258;-73
2021/07/03 03:16:24;;;;;;;103.90;45.22;;;;;;;16.33;82.25;98101.94;5020904;28;20250;-72
2021/07/03 03:18:51;;;;;;;83.28;45.42;;;;;;;15.94;82.51;98100.84;5022609;28;20246;-72
2021/07/03 03:21:17;;;;;;;113.38;53.22;;;;;;;15.43;83.63;98111.75;5021716;28;20245;-73
2021/07/03 03:23:45;;;;;;;112.40;54.40;;;;;;;15.50;85.32;98106.97;5022236;28;21143;-73
2021/07/03 03:26:12;;;;;;;106.57;55.60;;;;;;;15.54;85.38;98104.06;5021858;28;20655;-72
2021/07/03 03:28:38;;;;;;;121.60;60.65;;;;;;;15.26;86.04;98104.84;5022200;28;20833;-73
2021/07/03 03:31:05;;;;;;;108.20;57.75;;;;;;;14.61;87.63;98108.53;5021566;28;20238;-72
2021/07/03 03:33:32;;;;;;;105.50;56.72;;;;;;;15.22;86.98;98101.56;5022398;28;20726;-72
2021/07/03 03:35:58;;;;;;;110.30;56.42;;;;;;;15.52;84.36;98113.81;5021671;28;20243;-72
2021/07/03 03:38:25;;;;;;;101.07;59.70;;;;;;;15.37;85.13;98112.09;5021566;28;20254;-73
2021/07/03 03:40:53;;;;;;;108.10;60.72;;;;;;;15.95;83.54;98108.66;5021713;28;20243;-73
2021/07/03 03:43:19;;;;;;;124.57;64.82;;;;;;;16.06;83.03;98115.03;5021480;28;20214;-72
2021/07/03 03:45:46;;;;;;;118.25;64.25;;;;;;;15.54;82.56;98114.56;5021185;28;20247;-72
2021/07/03 03:48:13;;;;;;;124.68;66.97;;;;;;;15.53;82.79;98120.78;5022099;28;20250;-73
2021/07/03 03:50:39;;;;;;;124.85;65.10;;;;;;;15.59;82.34;98116.94;5021023;28;20253;-72
2021/07/03 03:53:06;;;;;;;123.15;65.38;;;;;;;15.68;83.39;98115.53;5022317;28;20215;-73
2021/07/03 03:55:32;;;;;;;113.22;61.03;;;;;;;16.00;82.62;98116.25;5021357;28;20330;-72
2021/07/03 03:58:01;;;;;;;121.20;66.40;;;;;;;15.51;82.75;98121.78;5021488;28;20719;-73
2021/07/03 04:00:27;;;;;;;114.82;66.45;;;;;;;14.80;85.21;98118.00;5021237;28;20239;-72
2021/07/03 04:02:55;;;;;;;117.80;65.88;;;;;;;15.07;85.15;98115.59;5021655;28;20226;-72
2021/07/03 04:05:22;;;;;;;117.97;64.70;;;;;;;15.25;85.57;98115.44;5020796;28;20207;-72
2021/07/03 04:07:49;;;;;;;130.43;69.82;;;;;;;15.66;84.36;98117.41;5021675;28;20235;-72
2021/07/03 04:10:16;;;;;;;109.97;64.85;;;;;;;15.66;84.23;98118.28;5021130;28;20245;-73
2021/07/03 04:12:43;;;;;;;131.93;72.50;;;;;;;15.53;83.52;98118.16;5021416;28;20227;-72
2021/07/03 04:15:11;;;;;;;136.65;72.10;;;;;;;14.75;85.70;98120.88;5020732;28;20671;-72
2021/07/03 04:17:38;;;;;;;120.63;66.53;;;;;;;14.65;87.98;98128.41;5021186;28;20242;-72
2021/07/03 04:20:07;;;;;;;122.70;66.50;;;;;;;15.05;85.40;98127.94;5020646;28;20219;-73
2021/07/03 04:22:34;;;;;;;129.00;70.57;;;;;;;14.88;85.68;98130.69;5020398;28;20223;-73
2021/07/03 04:25:00;;;;;;;124.38;66.30;;;;;;;14.63;87.38;98126.78;5021259;28;20843;-72
2021/07/03 04:27:27;;;;;;;127.25;67.25;;;;;;;15.01;86.96;98127.25;5020423;28;20238;-72
2021/07/03 04:29:53;;;;;;;129.27;67.55;;;;;;;14.77;87.44;98118.16;5021046;28;20218;-72
2021/07/03 04:32:21;;;;;;;134.75;70.78;;;;;;;14.81;87.62;98124.94;5020309;28;21069;-72
2021/07/03 04:34:48;;;;;;;139.95;70.90;;;;;;;15.56;85.70;98122.38;5020979;28;20225;-72
2021/07/03 04:37:14;;;;;;;131.45;71.03;;;;;;;15.91;84.07;98120.28;5019972;28;20250;-72
2021/07/03 04:39:41;;;;;;;125.53;68.22;;;;;;;15.51;85.48;98119.16;5021326;28;20222;-73
2021/07/03 04:42:07;;;;;;;136.07;68.65;;;;;;;15.18;87.47;98118.44;5019852;28;20238;-72
2021/07/03 04:44:34;;;;;;;128.85;69.72;;;;;;;15.20;86.02;98116.56;5020551;28;20218;-72
2021/07/03 04:47:01;;;;;;;135.25;72.35;;;;;;;15.39;85.53;98120.75;5019666;28;20239;-72
2021/07/03 04:49:32;;;;;;;129.18;70.90;;;;;;;16.06;83.92;98122.91;5020667;28;20219;-73
2021/07/03 04:51:58;;;;;;;140.60;74.93;;;;;;;16.13;82.49;98111.06;5019838;28;20238;-73
2021/07/03 04:54:25;;;;;;;137.52;77.15;;;;;;;16.36;81.99;98115.75;5021061;28;20229;-72
2021/07/03 04:56:51;;;;;;;130.98;73.65;;;;;;;16.66;80.32;98104.22;5018783;28;20982;-72
2021/07/03 04:59:18;;;;;;;142.05;76.53;;;;;;;16.48;80.69;98105.38;5020630;28;20214;-72
2021/07/03 05:01:44;;;;;;;232.32;94.10;;;;;;;16.56;80.70;98105.75;5014519;28;20730;-73
2021/07/03 05:04:11;;;;;;;124.15;73.85;;;;;;;16.55;80.68;98102.25;5013486;28;20213;-72
2021/07/03 05:06:39;;;;;;;128.60;77.45;;;;;;;16.41;81.87;98099.66;5022337;28;20234;-72
2021/07/03 05:09:05;;;;;;;126.28;79.15;;;;;;;15.59;85.84;98098.53;5023172;28;20218;-73
2021/07/03 05:11:32;;;;;;;110.15;73.35;;;;;;;16.54;81.38;98091.81;5022483;28;20237;-73
2021/07/03 05:13:58;;;;;;;127.80;78.50;;;;;;;15.96;84.14;98089.28;5023224;28;20226;-73
2021/07/03 05:16:25;;;;;;;118.75;77.75;;;;;;;16.51;81.53;98086.78;5022619;28;20281;-72
2021/07/03 05:18:51;;;;;;;130.95;80.50;;;;;;;16.06;82.56;98094.81;5023153;28;20247;-72
2021/07/03 05:21:18;;;;;;;143.27;85.53;;;;;;;15.64;86.88;98098.25;5021921;28;20737;-72
2021/07/03 05:23:45;;;;;;;141.38;81.70;;;;;;;15.65;87.53;98097.31;5022626;28;20227;-73
2021/07/03 05:26:12;;;;;;;134.48;82.13;;;;;;;15.68;88.00;98094.50;5022058;28;20231;-72
2021/07/03 05:28:38;;;;;;;155.05;86.30;;;;;;;15.74;87.90;98088.91;5022949;28;20231;-72
2021/07/03 05:31:05;;;;;;;135.30;82.75;;;;;;;15.71;88.95;98094.31;5022476;28;20239;-72
2021/07/03 05:33:32;;;;;;;135.13;84.72;;;;;;;15.75;88.91;98098.47;5022924;28;20237;-72
2021/07/03 05:35:58;;;;;;;143.63;85.88;;;;;;;15.73;89.19;98097.69;5022178;28;20238;-72
2021/07/03 05:38:25;;;;;;;136.52;83.32;;;;;;;15.98;87.74;98090.03;5022469;28;20238;-73
2021/07/03 05:40:53;;;;;;;141.65;86.15;;;;;;;15.97;88.78;98101.50;5022297;28;20742;-72
2021/07/03 05:43:19;;;;;;;150.63;87.65;;;;;;;15.97;89.39;98106.78;5022342;28;20246;-72
2021/07/03 05:45:46;;;;;;;142.75;85.00;;;;;;;16.14;89.00;98097.81;5022136;28;20245;-72
2021/07/03 05:48:12;;;;;;;150.15;86.60;;;;;;;16.15;88.67;98098.66;5022571;28;20235;-72
2021/07/03 05:50:39;;;;;;;156.10;91.28;;;;;;;16.16;89.04;98095.09;5021886;28;20246;-72
2021/07/03 05:53:05;;;;;;;154.50;88.72;;;;;;;16.51;87.59;98099.94;5022613;28;20210;-72
2021/07/03 05:55:32;;;;;;;140.98;87.72;;;;;;;16.74;86.09;98091.41;5021955;28;20869;-72
2021/07/03 05:58:00;;;;;;;140.07;86.43;;;;;;;16.68;86.00;98091.78;5022385;28;20249;-73
2021/07/03 06:00:26;;;;;;;177.05;92.20;;;;;;;16.60;87.12;98088.81;5020930;28;20238;-72
2021/07/03 06:02:53;;;;;;;144.43;87.93;;;;;;;16.90;84.61;98083.38;5020001;28;20210;-72
2021/07/03 06:05:19;;;;;;;150.85;89.00;;;;;;;16.99;83.16;98089.84;5019908;28;20222;-72
2021/07/03 06:07:46;;;;;;;150.15;86.82;;;;;;;17.27;81.01;98080.09;5022405;28;21032;-72
2021/07/03 06:10:13;;;;;;;166.23;91.00;;;;;;;17.28;80.73;98080.00;5025441;28;20229;-73
2021/07/03 06:12:40;;;;;;;153.68;90.65;;;;;;;17.08;82.40;98081.31;5026056;28;20218;-73
2021/07/03 06:15:10;;;;;;;163.65;93.00;;;;;;;16.93;86.31;98069.16;5026080;28;20225;-72
2021/07/03 06:17:37;;;;;;;150.27;90.97;;;;;;;17.03;85.22;98069.41;5026127;28;20245;-72
2021/07/03 06:20:05;;;;;;;156.75;90.50;;;;;;;17.14;85.12;98073.00;5026127;28;20219;-72
2021/07/03 06:22:31;;;;;;;165.10;91.72;;;;;;;17.41;83.03;98077.38;5025585;28;20698;-73
2021/07/03 06:24:58;;;;;;;178.55;98.97;;;;;;;17.39;84.15;98070.50;5025953;28;20233;-72
2021/07/03 06:27:24;;;;;;;164.57;95.55;;;;;;;17.44;84.31;98069.25;5025703;28;20660;-72
2021/07/03 06:29:51;;;;;;;169.68;96.68;;;;;;;17.79;80.97;98066.00;5026077;28;20222;-73
2021/07/03 06:32:19;;;;;;;165.20;96.75;;;;;;;17.84;76.78;98061.22;5025500;28;20249;-73
2021/07/03 06:34:46;;;;;;;192.23;103.22;;;;;;;18.11;76.87;98057.63;5025871;28;20218;-73
2021/07/03 06:37:12;;;;;;;189.70;102.75;;;;;;;18.23;77.14;98054.13;5025172;28;21120;-73
2021/07/03 06:39:41;;;;;;;172.38;100.13;;;;;;;18.20;76.43;98062.25;5025782;28;20226;-74
2021/07/03 06:42:07;;;;;;;162.35;97.65;;;;;;;18.19;78.17;98055.28;5025463;28;20245;-72
2021/07/03 06:44:34;;;;;;;154.23;96.97;;;;;;;18.56;76.27;98050.00;5026063;28;20218;-72
2021/07/03 06:47:00;;;;;;;173.35;103.22;;;;;;;18.34;73.07;98047.22;5025219;28;20253;-73
2021/07/03 06:49:28;;;;;;;180.18;100.65;;;;;;;18.28;74.88;98052.00;5025991;28;20214;-73
2021/07/03 06:51:55;;;;;;;182.18;102.28;;;;;;;18.45;73.75;98049.94;5025144;28;20300;-72
2021/07/03 06:54:21;;;;;;;191.50;105.57;;;;;;;18.49;71.04;98051.41;5025772;28;20207;-73
2021/07/03 06:56:57;;;;;;;190.02;108.43;;;;;;;18.52;71.29;98051.16;5024913;28;20981;-72
2021/07/03 06:59:23;;;;;;;175.27;104.07;;;;;;;18.66;71.19;98058.94;5025853;28;20223;-72
2021/07/03 07:01:50;;;;;;;184.40;105.85;;;;;;;18.79;70.78;98061.53;5024935;28;20727;-73
2021/07/03 07:04:17;;;;;;;195.02;105.93;;;;;;;18.93;70.95;98059.69;5025448;28;20203;-72
2021/07/03 07:06:45;;;;;;;193.90;109.07;;;;;;;19.04;69.32;98051.78;5024572;28;20727;-72
2021/07/03 07:09:12;;;;;;;196.95;109.55;;;;;;;19.00;70.94;98061.75;5025184;28;20211;-72
2021/07/03 07:11:38;;;;;;;210.57;110.10;;;;;;;18.92;73.78;98055.38;5024783;28;20723;-73
2021/07/03 07:14:05;;;;;;;196.65;107.28;;;;;;;18.86;74.19;98059.31;5007618;28;20218;-73
2021/07/03 07:16:32;;;;;;;190.43;110.30;;;;;;;18.91;74.56;98059.78;5024776;28;20572;-73
2021/07/03 07:18:58;;;;;;;190.75;106.40;;;;;;;18.93;72.27;98064.97;5024980;28;20243;-73
2021/07/03 07:21:25;;;;;;;192.55;109.50;;;;;;;19.10;70.81;98056.66;5024121;28;20661;-73
2021/07/03 07:23:52;;;;;;;183.07;108.35;;;;;;;19.03;72.39;98055.41;5025293;28;20225;-73
2021/07/03 07:26:19;;;;;;;198.13;107.25;;;;;;;19.26;72.80;98056.31;5024287;28;20234;-73
2021/07/03 07:28:46;;;;;;;204.95;114.20;;;;;;;19.03;72.44;98056.25;5025058;28;20230;-72
2021/07/03 07:31:13;;;;;;;198.63;108.50;;;;;;;19.28;71.35;98054.41;5024710;28;20239;-73
2021/07/03 07:33:40;;;;;;;187.10;111.97;;;;;;;19.24;72.15;98050.28;5024823;28;21069;-72
2021/07/03 07:36:06;;;;;;;197.63;111.68;;;;;;;19.22;71.25;98052.22;5024451;28;20249;-72
2021/07/03 07:38:33;;;;;;;196.60;111.40;;;;;;;19.30;71.69;98047.22;5024647;28;20719;-73
2021/07/03 07:41:01;;;;;;;194.07;109.63;;;;;;;19.30;70.99;98047.22;5024479;28;20242;-72
2021/07/03 07:43:27;;;;;;;189.35;108.70;;;;;;;19.27;69.13;98042.13;5024615;28;20218;-72
2021/07/03 07:45:55;;;;;;;188.05;107.72;;;;;;;19.34;70.28;98039.88;5024286;28;20249;-73
2021/07/03 07:48:22;;;;;;;192.93;111.88;;;;;;;19.41;70.55;98038.47;5025029;28;20312;-72
2021/07/03 07:50:49;;;;;;;183.20;112.32;;;;;;;19.49;68.63;98044.00;5024089;28;20252;-72
2021/07/03 07:53:15;;;;;;;193.57;107.63;;;;;;;19.45;68.49;98040.72;5024596;28;20219;-73
2021/07/03 07:55:42;;;;;;;201.07;110.55;;;;;;;19.66;66.64;98040.03;5023855;28;20249;-72
2021/07/03 07:58:10;;;;;;;202.98;114.60;;;;;;;19.74;66.62;98040.31;5024631;28;20246;-71
2021/07/03 08:00:36;;;;;;;207.45;116.05;;;;;;;19.70;68.64;98033.53;5018575;28;20237;-73
2021/07/03 08:03:03;;;;;;;198.15;111.93;;;;;;;19.78;67.54;98036.47;5023446;28;20215;-73
2021/07/03 08:05:29;;;;;;;209.40;115.25;;;;;;;20.03;66.59;98029.25;5023233;28;20243;-73
2021/07/03 08:07:56;;;;;;;199.52;113.43;;;;;;;20.08;65.58;98032.38;5024174;28;20242;-72
2021/07/03 08:10:27;;;;;;;209.68;117.95;;;;;;;20.08;65.51;98027.06;5023432;28;20211;-72
2021/07/03 08:12:53;;;;;;;211.90;114.82;;;;;;;20.18;65.95;98028.03;5024199;28;20207;-73
2021/07/03 08:15:22;;;;;;;227.95;116.80;;;;;;;20.09;65.94;98034.06;5023235;28;20221;-72
2021/07/03 08:17:48;;;;;;;210.63;116.55;;;;;;;20.05;65.30;98029.13;5024133;28;20239;-72
2021/07/03 08:20:17;;;;;;;227.10;118.60;;;;;;;20.15;62.37;98028.28;5022828;28;20214;-72
2021/07/03 08:22:43;;;;;;;214.00;117.40;;;;;;;20.16;66.38;98035.25;5023667;28;20238;-72
2021/07/03 08:25:12;;;;;;;222.68;120.25;;;;;;;20.11;63.86;98028.66;5023077;28;20210;-72
2021/07/03 08:27:38;;;;;;;223.55;120.80;;;;;;;20.16;65.33;98024.66;5023918;28;20258;-72
2021/07/03 08:30:06;;;;;;;221.43;120.45;;;;;;;20.40;63.85;98021.84;5023683;28;20591;-71
2021/07/03 08:32:34;;;;;;;211.52;118.50;;;;;;;20.58;65.59;98026.59;5021879;28;20223;-72
2021/07/03 08:35:01;;;;;;;201.55;117.13;;;;;;;20.63;63.98;98026.28;5023542;28;20215;-73
2021/07/03 08:37:27;;;;;;;218.30;119.38;;;;;;;20.80;65.22;98009.81;5019699;28;20231;-73
2021/07/03 08:39:54;;;;;;;176.82;118.00;;;;;;;20.80;64.79;98001.84;5021838;28;20238;-72
2021/07/03 08:42:20;;;;;;;233.95;129.43;;;;;;;20.88;68.00;98010.03;5020516;28;20245;-73
2021/07/03 08:44:47;;;;;;;226.68;126.68;;;;;;;21.09;62.16;98007.38;5021526;28;20221;-72
2021/07/03 08:47:14;;;;;;;223.68;130.43;;;;;;;21.21;66.16;98010.81;5017693;28;20245;-73
2021/07/03 08:49:43;;;;;;;223.07;130.27;;;;;;;21.20;63.02;98010.94;5021029;28;20211;-72
2021/07/03 08:52:10;;;;;;;215.05;123.53;;;;;;;21.27;62.83;98005.00;5019620;28;20254;-74
2021/07/03 08:54:36;;;;;;;213.98;131.55;;;;;;;21.42;63.12;98007.31;5019021;28;20215;-73
2021/07/03 08:57:04;;;;;;;212.55;127.93;;;;;;;21.57;61.23;98000.72;5019738;28;20235;-74
2021/07/03 08:59:30;;;;;;;212.80;132.30;;;;;;;21.39;61.06;97997.78;5020025;28;20241;-72
2021/07/03 09:01:58;;;;;;;209.25;125.90;;;;;;;20.88;63.83;97999.44;5022271;28;20246;-72
2021/07/03 09:04:38;;;;;;;219.38;133.30;;;;;;;20.77;63.39;97999.47;5023462;28;20215;-72
2021/07/03 09:07:14;;;;;;;209.50;124.18;;;;;;;20.77;64.46;97996.84;5022151;28;20246;-73
2021/07/03 09:09:41;;;;;;;212.20;126.95;;;;;;;20.87;68.31;97995.06;5023073;28;20210;-73
2021/07/03 09:12:08;;;;;;;207.75;132.13;;;;;;;21.03;64.97;97991.16;5021917;28;20239;-73
2021/07/03 09:14:36;;;;;;;208.48;133.15;;;;;;;21.36;64.07;97998.06;5023262;28;20262;-73
2021/07/03 09:17:03;;;;;;;153.50;114.75;;;;;;;21.51;61.83;97995.94;5019620;28;20250;-72
2021/07/03 09:19:31;;;;;;;227.98;130.63;;;;;;;21.65;60.50;97992.94;5021309;28;20241;-72
2021/07/03 09:21:58;;;;;;;192.85;127.32;;;;;;;21.81;60.36;97981.81;5021582;28;20238;-72
2021/07/03 09:24:31;;;;;;;174.40;124.22;;;;;;;21.87;62.03;97981.28;5022528;28;20215;-72
2021/07/03 09:26:59;;;;;;;210.85;131.98;;;;;;;21.72;63.18;97988.75;5022108;28;20242;-72
2021/07/03 09:29:26;;;;;;;222.20;136.00;;;;;;;21.53;63.41;97986.03;5022943;28;20230;-72
2021/07/03 09:31:52;;;;;;;224.25;137.43;;;;;;;21.22;61.60;97993.94;5021771;28;20249;-71
2021/07/03 09:34:21;;;;;;;205.70;126.07;;;;;;;21.29;62.48;97987.13;5021573;28;20218;-71
2021/07/03 09:36:48;;;;;;;234.45;132.98;;;;;;;21.29;59.29;97987.13;5021617;28;20237;-72
2021/07/03 09:39:22;;;;;;;232.02;132.80;;;;;;;21.11;62.69;97999.28;5022223;28;20243;-72
2021/07/03 09:41:50;;;;;;;219.32;131.70;;;;;;;21.03;64.44;97999.13;5020819;28;20316;-72
2021/07/03 09:44:17;;;;;;;228.45;129.18;;;;;;;21.15;60.84;97990.94;5021746;28;20229;-73
2021/07/03 09:46:47;;;;;;;244.88;138.30;;;;;;;21.62;58.76;97982.59;5021593;28;20238;-73
2021/07/03 09:49:15;;;;;;;241.93;131.75;;;;;;;21.97;57.36;97980.47;5022408;28;20211;-72
2021/07/03 09:51:43;;;;;;;247.73;135.68;;;;;;;21.99;57.14;97974.06;5021275;28;20234;-72
2021/07/03 09:54:23;;;;;;;243.45;137.02;;;;;;;21.90;58.38;97974.84;5022366;28;20907;-72
2021/07/03 09:56:58;;;;;;;259.73;140.07;;;;;;;21.92;60.76;97973.75;5021338;28;20239;-73
2021/07/03 09:59:25;;;;;;;256.73;137.75;;;;;;;21.46;60.56;97976.91;5021719;28;20226;-73
2021/07/03 10:01:52;;;;;;;248.93;131.90;;;;;;;21.67;59.14;97963.59;5003596;28;20762;-73
2021/07/03 10:04:18;;;;;;;253.65;139.95;;;;;;;22.04;61.40;97966.53;5022505;28;20226;-73
2021/07/03 10:06:48;;;;;;;242.35;133.38;;;;;;;22.01;55.92;97963.28;5019867;28;20234;-72
2021/07/03 10:09:22;;;;;;;261.73;141.05;;;;;;;22.43;56.72;97966.59;5019513;28;20211;-72
2021/07/03 10:11:51;;;;;;;265.85;150.65;;;;;;;22.54;54.56;97951.53;5020800;28;20614;-72
2021/07/03 10:14:18;;;;;;;261.67;163.60;;;;;;;22.69;56.53;97952.75;5021994;28;20951;-72
2021/07/03 10:16:45;;;;;;;241.07;146.80;;;;;;;22.67;58.63;97947.59;5019759;28;20230;-72
2021/07/03 10:19:15;;;;;;;257.17;149.85;;;;;;;22.63;57.16;97950.69;5021694;28;20242;-72
2021/07/03 10:21:42;;;;;;;228.48;144.10;;;;;;;22.81;59.50;97943.66;5017618;28;20242;-72
2021/07/03 10:24:19;;;;;;;282.52;158.43;;;;;;;23.00;58.28;97941.97;5020659;28;20207;-72
2021/07/03 10:26:46;;;;;;;286.90;154.52;;;;;;;23.18;56.43;97929.63;5019489;28;20740;-72
2021/07/03 10:29:18;;;;;;;260.13;148.82;;;;;;;22.95;58.40;97934.41;5022147;28;20699;-72
2021/07/03 10:31:46;;;;;;;291.75;147.32;;;;;;;22.23;63.30;97933.00;5020870;28;20737;-72
2021/07/03 10:34:13;;;;;;;265.70;143.38;;;;;;;22.18;58.27;97935.22;5021744;28;20215;-72
2021/07/03 10:36:39;;;;;;;259.92;154.10;;;;;;;22.79;59.77;97929.69;5020839;28;20276;-72
2021/07/03 10:41:19;;;;;;;269.77;148.52;;;;;;;22.77;59.60;97942.25;5056446;27;20547;-73
2021/07/03 10:43:47;;;;;;;263.77;148.65;;;;;;;22.91;55.32;97941.81;5046905;28;20858;-73
2021/07/03 10:46:25;;;;;;;264.27;147.73;;;;;;;22.98;57.15;97938.63;5046068;28;20245;-73
2021/07/03 10:48:55;;;;;;;269.08;155.65;;;;;;;23.16;57.25;97926.28;5063452;28;20805;-74
2021/07/03 10:51:31;;;;;;;262.20;153.45;;;;;;;23.09;59.44;97925.19;5068368;28;20306;-74
2021/07/03 10:54:09;;;;;;;264.02;146.50;;;;;;;22.74;54.44;97923.94;5067129;28;20201;-73
2021/07/03 10:56:41;;;;;;;251.13;150.55;;;;;;;22.76;57.52;97927.28;5066221;28;20232;-73
2021/07/03 10:59:11;;;;;;;274.65;153.70;;;;;;;22.52;56.91;97920.59;5065884;28;20236;-74
2021/07/03 11:01:38;;;;;;;280.75;151.98;;;;;;;22.37;57.53;97919.34;5067091;28;20742;-75
2021/07/03 11:04:13;;;;;;;261.65;147.93;;;;;;;22.20;57.95;97927.94;5069582;28;20266;-75
2021/07/03 11:06:43;;;;;;;259.52;149.75;;;;;;;22.21;58.45;97925.16;5068523;28;20236;-74
2021/07/03 11:09:21;;;;;;;261.48;151.60;;;;;;;22.17;58.45;97922.94;5068112;28;20221;-74